sensor_id;sensor_type;location;lat;lon;timestamp;temperature;humidity
3288;DHT22;3260;52.438;13.502;2022-09-09T04:00:54;14.10;99.90
3288;DHT22;3260;52.438;13.502;2022-09-09T04:03:24;14.10;99.90
3288;DHT22;3260;52.438;13.502;2022-09-09T04:05:55;14.10;99.90
3288;DHT22;3260;52.438;13.502;2022-09-09T04:08:25;14.00;99.90
3288;DHT22;3260;52.438;13.502;2022-09-09T04:10:54;14.00;99.90
3288;DHT22;3260;52.438;13.502;2022-09-09T04:13:25;14.00;99.90
3288;DHT22;3260;52.438;13.502;2022-09-09T04:15:55;14.00;99.90
3288;DHT22;3260;52.438;13.502;2022-09-09T04:18:26;14.00;99.90
3288;DHT22;3260;52.438;13.502;2022-09-09T04:20:55;14.00;99.90
3288;DHT22;3260;52.438;13.502;2022-09-09T04:23:25;14.00;99.90
3288;DHT22;3260;52.438;13.502;2022-09-09T04:25:56;14.00;99.90
3288;DHT22;3260;52.438;13.502;2022-09-09T04:28:27;13.90;99.90
3288;DHT22;3260;52.438;13.502;2022-09-09T04:31:04;13.90;99.90
3288;DHT22;3260;52.438;13.502;2022-09-09T04:33:33;13.90;99.90
3288;DHT22;3260;52.438;13.502;2022-09-09T04:36:06;13.90;99.90
3288;DHT22;3260;52.438;13.502;2022-09-09T04:38:34;13.90;99.90
3288;DHT22;3260;52.438;13.502;2022-09-09T04:41:03;14.00;99.90
3288;DHT22;3260;52.438;13.502;2022-09-09T04:43:31;14.00;99.90
3288;DHT22;3260;52.438;13.502;2022-09-09T04:46:01;14.00;99.90
3288;DHT22;3260;52.438;13.502;2022-09-09T04:48:29;14.00;99.90
3288;DHT22;3260;52.438;13.502;2022-09-09T04:50:59;14.00;99.90
3288;DHT22;3260;52.438;13.502;2022-09-09T04:53:28;14.00;99.90
3288;DHT22;3260;52.438;13.502;2022-09-09T04:56:02;14.10;99.90
3288;DHT22;3260;52.438;13.502;2022-09-09T04:58:31;14.10;99.90
3288;DHT22;3260;52.438;13.502;2022-09-09T05:01:08;14.10;99.90
3288;DHT22;3260;52.438;13.502;2022-09-09T05:03:37;14.20;99.90
3288;DHT22;3260;52.438;13.502;2022-09-09T05:06:08;14.30;99.90
3288;DHT22;3260;52.438;13.502;2022-09-09T05:08:38;14.40;99.90
3288;DHT22;3260;52.438;13.502;2022-09-09T05:11:14;14.50;99.90
3288;DHT22;3260;52.438;13.502;2022-09-09T05:13:43;14.50;99.90
3288;DHT22;3260;52.438;13.502;2022-09-09T05:16:14;14.60;99.90
3288;DHT22;3260;52.438;13.502;2022-09-09T05:18:43;14.70;99.90
3288;DHT22;3260;52.438;13.502;2022-09-09T05:21:14;14.80;99.90
3288;DHT22;3260;52.438;13.502;2022-09-09T05:23:44;14.80;99.90
3288;DHT22;3260;52.438;13.502;2022-09-09T05:26:15;14.90;99.90
3288;DHT22;3260;52.438;13.502;2022-09-09T05:28:45;15.00;99.90
3288;DHT22;3260;52.438;13.502;2022-09-09T05:31:17;15.10;99.90
3288;DHT22;3260;52.438;13.502;2022-09-09T05:33:47;15.20;99.90
3288;DHT22;3260;52.438;13.502;2022-09-09T05:36:17;15.20;99.90
3288;DHT22;3260;52.438;13.502;2022-09-09T05:38:47;15.30;99.90
3288;DHT22;3260;52.438;13.502;2022-09-09T05:41:16;15.40;99.90
3288;DHT22;3260;52.438;13.502;2022-09-09T05:43:45;15.50;99.90
3288;DHT22;3260;52.438;13.502;2022-09-09T05:46:18;15.50;99.90
3288;DHT22;3260;52.438;13.502;2022-09-09T05:48:48;15.40;99.90
3288;DHT22;3260;52.438;13.502;2022-09-09T05:51:19;15.50;99.90
3288;DHT22;3260;52.438;13.502;2022-09-09T05:53:49;15.50;99.90
3288;DHT22;3260;52.438;13.502;2022-09-09T05:56:18;15.50;99.90
3288;DHT22;3260;52.438;13.502;2022-09-09T05:58:49;15.50;99.90
3288;DHT22;3260;52.438;13.502;2022-09-09T06:01:21;15.60;99.90
3288;DHT22;3260;52.438;13.502;2022-09-09T06:03:51;15.60;99.90
3288;DHT22;3260;52.438;13.502;2022-09-09T06:06:22;15.70;99.90
3288;DHT22;3260;52.438;13.502;2022-09-09T06:08:53;15.80;99.90
3288;DHT22;3260;52.438;13.502;2022-09-09T06:11:25;15.80;99.90
3288;DHT22;3260;52.438;13.502;2022-09-09T06:13:57;15.80;99.90
3288;DHT22;3260;52.438;13.502;2022-09-09T06:16:28;15.90;99.90
3288;DHT22;3260;52.438;13.502;2022-09-09T06:19:00;16.00;98.80
3288;DHT22;3260;52.438;13.502;2022-09-09T06:21:31;16.10;99.90
3288;DHT22;3260;52.438;13.502;2022-09-09T06:24:01;16.20;97.00
3288;DHT22;3260;52.438;13.502;2022-09-09T06:26:30;16.20;90.20
3288;DHT22;3260;52.438;13.502;2022-09-09T06:29:01;16.40;88.10
3288;DHT22;3260;52.438;13.502;2022-09-09T06:31:34;16.50;85.90
3288;DHT22;3260;52.438;13.502;2022-09-09T06:34:05;16.70;93.50
3288;DHT22;3260;52.438;13.502;2022-09-09T06:36:36;16.90;85.70
3288;DHT22;3260;52.438;13.502;2022-09-09T06:39:06;17.10;57.60
3288;DHT22;3260;52.438;13.502;2022-09-09T06:41:40;17.20;16.50
3288;DHT22;3260;52.438;13.502;2022-09-09T06:44:10;17.30;1.00
3288;DHT22;3260;52.438;13.502;2022-09-09T06:46:40;17.40;1.00
3288;DHT22;3260;52.438;13.502;2022-09-09T06:49:09;17.50;1.00
3288;DHT22;3260;52.438;13.502;2022-09-09T06:51:38;17.60;1.00
3288;DHT22;3260;52.438;13.502;2022-09-09T06:54:10;17.70;1.00
3288;DHT22;3260;52.438;13.502;2022-09-09T06:56:40;17.70;1.00
3288;DHT22;3260;52.438;13.502;2022-09-09T06:59:10;17.70;1.00
3288;DHT22;3260;52.438;13.502;2022-09-09T07:01:41;17.80;1.00
3288;DHT22;3260;52.438;13.502;2022-09-09T07:04:11;17.80;1.00
3288;DHT22;3260;52.438;13.502;2022-09-09T07:06:42;17.80;1.00
3288;DHT22;3260;52.438;13.502;2022-09-09T07:09:13;17.90;1.00
3288;DHT22;3260;52.438;13.502;2022-09-09T07:11:44;18.00;1.00
3288;DHT22;3260;52.438;13.502;2022-09-09T07:14:14;18.10;1.00
3288;DHT22;3260;52.438;13.502;2022-09-09T07:16:45;18.20;1.00
3288;DHT22;3260;52.438;13.502;2022-09-09T07:19:14;18.30;1.00
3288;DHT22;3260;52.438;13.502;2022-09-09T07:21:42;18.40;1.00
3288;DHT22;3260;52.438;13.502;2022-09-09T07:24:11;18.50;1.00
3288;DHT22;3260;52.438;13.502;2022-09-09T07:26:40;18.50;1.00
3288;DHT22;3260;52.438;13.502;2022-09-09T07:29:08;18.50;1.00
3288;DHT22;3260;52.438;13.502;2022-09-09T07:31:38;18.60;1.00
3288;DHT22;3260;52.438;13.502;2022-09-09T07:34:08;18.70;1.00
3288;DHT22;3260;52.438;13.502;2022-09-09T07:36:38;18.90;1.00
3288;DHT22;3260;52.438;13.502;2022-09-09T07:39:10;18.90;1.00
3288;DHT22;3260;52.438;13.502;2022-09-09T07:41:42;18.90;1.00
3288;DHT22;3260;52.438;13.502;2022-09-09T07:44:13;19.10;1.00
3288;DHT22;3260;52.438;13.502;2022-09-09T07:46:44;19.30;1.00
3288;DHT22;3260;52.438;13.502;2022-09-09T07:49:14;19.50;1.00
3288;DHT22;3260;52.438;13.502;2022-09-09T07:51:52;19.60;1.00
3288;DHT22;3260;52.438;13.502;2022-09-09T07:54:21;19.70;1.00
3288;DHT22;3260;52.438;13.502;2022-09-09T07:56:51;19.80;1.00
3288;DHT22;3260;52.438;13.502;2022-09-09T07:59:19;19.60;1.00
3288;DHT22;3260;52.438;13.502;2022-09-09T08:01:49;19.60;1.00
3288;DHT22;3260;52.438;13.502;2022-09-09T08:04:23;19.60;1.00
3288;DHT22;3260;52.438;13.502;2022-09-09T08:06:54;19.70;1.00
3288;DHT22;3260;52.438;13.502;2022-09-09T08:09:25;19.80;1.00
3288;DHT22;3260;52.438;13.502;2022-09-09T08:11:56;20.00;1.00
3288;DHT22;3260;52.438;13.502;2022-09-09T08:14:24;20.10;1.00
3288;DHT22;3260;52.438;13.502;2022-09-09T08:16:53;20.20;1.00
3288;DHT22;3260;52.438;13.502;2022-09-09T08:19:22;20.40;1.00
3288;DHT22;3260;52.438;13.502;2022-09-09T08:21:51;20.50;1.00
3288;DHT22;3260;52.438;13.502;2022-09-09T08:24:19;20.80;1.00
3288;DHT22;3260;52.438;13.502;2022-09-09T08:26:48;20.90;1.00
3288;DHT22;3260;52.438;13.502;2022-09-09T08:29:17;21.10;1.00
3288;DHT22;3260;52.438;13.502;2022-09-09T08:31:47;21.40;1.00
3288;DHT22;3260;52.438;13.502;2022-09-09T08:34:17;21.60;1.00
3288;DHT22;3260;52.438;13.502;2022-09-09T08:36:48;21.70;1.00
3288;DHT22;3260;52.438;13.502;2022-09-09T08:39:19;21.80;1.00
3288;DHT22;3260;52.438;13.502;2022-09-09T08:42:00;21.80;1.00
3288;DHT22;3260;52.438;13.502;2022-09-09T08:45:02;21.70;1.00
3288;DHT22;3260;52.438;13.502;2022-09-09T08:47:51;21.70;1.00
3288;DHT22;3260;52.438;13.502;2022-09-09T08:50:31;21.80;1.00
3288;DHT22;3260;52.438;13.502;2022-09-09T08:53:05;21.90;1.00
3288;DHT22;3260;52.438;13.502;2022-09-09T08:55:43;22.20;1.00
3288;DHT22;3260;52.438;13.502;2022-09-09T08:58:16;22.40;1.00
3288;DHT22;3260;52.438;13.502;2022-09-09T09:01:00;22.60;1.00
3288;DHT22;3260;52.438;13.502;2022-09-09T09:03:48;22.70;1.00
3288;DHT22;3260;52.438;13.502;2022-09-09T09:06:34;22.90;1.00
3288;DHT22;3260;52.438;13.502;2022-09-09T09:09:21;23.00;1.00
3288;DHT22;3260;52.438;13.502;2022-09-09T09:11:56;22.90;1.00
3288;DHT22;3260;52.438;13.502;2022-09-09T09:14:29;22.80;1.00
3288;DHT22;3260;52.438;13.502;2022-09-09T09:17:02;22.80;1.00
3288;DHT22;3260;52.438;13.502;2022-09-09T09:19:33;22.90;1.00
3288;DHT22;3260;52.438;13.502;2022-09-09T09:22:09;23.00;1.00
3288;DHT22;3260;52.438;13.502;2022-09-09T09:24:51;23.10;1.00
3288;DHT22;3260;52.438;13.502;2022-09-09T09:27:28;23.00;1.00
3288;DHT22;3260;52.438;13.502;2022-09-09T09:30:02;23.00;1.00
3288;DHT22;3260;52.438;13.502;2022-09-09T09:33:00;22.80;1.00
3288;DHT22;3260;52.438;13.502;2022-09-09T09:35:31;22.60;1.00
3288;DHT22;3260;52.438;13.502;2022-09-09T09:38:14;22.60;1.00
3288;DHT22;3260;52.438;13.502;2022-09-09T09:41:06;22.60;1.00
3288;DHT22;3260;52.438;13.502;2022-09-09T09:43:35;22.50;1.00
3288;DHT22;3260;52.438;13.502;2022-09-09T09:46:05;22.50;1.00
3288;DHT22;3260;52.438;13.502;2022-09-09T09:48:56;22.50;1.00
3288;DHT22;3260;52.438;13.502;2022-09-09T09:51:26;22.60;1.00
3288;DHT22;3260;52.438;13.502;2022-09-09T09:54:08;22.70;1.00
3288;DHT22;3260;52.438;13.502;2022-09-09T09:56:44;22.80;1.00
3288;DHT22;3260;52.438;13.502;2022-09-09T09:59:22;23.00;1.00
3288;DHT22;3260;52.438;13.502;2022-09-09T10:02:16;23.20;1.00
3288;DHT22;3260;52.438;13.502;2022-09-09T10:04:46;23.50;1.00
3288;DHT22;3260;52.438;13.502;2022-09-09T10:07:19;23.70;1.00
3288;DHT22;3260;52.438;13.502;2022-09-09T10:09:53;24.00;1.00
3288;DHT22;3260;52.438;13.502;2022-09-09T10:12:33;24.20;1.00
3288;DHT22;3260;52.438;13.502;2022-09-09T10:15:22;24.60;1.00
3288;DHT22;3260;52.438;13.502;2022-09-09T10:18:08;25.00;1.00
3288;DHT22;3260;52.438;13.502;2022-09-09T10:20:50;25.30;1.00
3288;DHT22;3260;52.438;13.502;2022-09-09T10:23:33;25.50;1.00
3288;DHT22;3260;52.438;13.502;2022-09-09T10:26:28;25.80;1.00
3288;DHT22;3260;52.438;13.502;2022-09-09T10:29:26;25.80;1.00
3288;DHT22;3260;52.438;13.502;2022-09-09T10:32:19;25.80;1.00
3288;DHT22;3260;52.438;13.502;2022-09-09T10:35:20;26.00;1.00
3288;DHT22;3260;52.438;13.502;2022-09-09T10:38:10;26.30;1.00
3288;DHT22;3260;52.438;13.502;2022-09-09T10:40:50;26.30;1.00
3288;DHT22;3260;52.438;13.502;2022-09-09T10:43:51;26.20;1.00
3288;DHT22;3260;52.438;13.502;2022-09-09T10:46:36;26.20;1.00
3288;DHT22;3260;52.438;13.502;2022-09-09T10:49:22;25.90;1.00
3288;DHT22;3260;52.438;13.502;2022-09-09T10:52:22;25.80;1.00
3288;DHT22;3260;52.438;13.502;2022-09-09T10:55:00;25.70;1.00
3288;DHT22;3260;52.438;13.502;2022-09-09T10:57:39;25.60;1.00
3288;DHT22;3260;52.438;13.502;2022-09-09T11:00:16;25.60;1.00
3288;DHT22;3260;52.438;13.502;2022-09-09T11:02:49;25.80;1.00
3288;DHT22;3260;52.438;13.502;2022-09-09T11:05:27;26.10;1.00
3288;DHT22;3260;52.438;13.502;2022-09-09T11:08:03;26.60;1.00
3288;DHT22;3260;52.438;13.502;2022-09-09T11:10:39;27.10;1.00
3288;DHT22;3260;52.438;13.502;2022-09-09T11:13:18;27.50;1.00
3288;DHT22;3260;52.438;13.502;2022-09-09T11:15:58;28.00;1.00
3288;DHT22;3260;52.438;13.502;2022-09-09T11:18:36;28.50;1.00
3288;DHT22;3260;52.438;13.502;2022-09-09T11:21:12;28.90;1.00
3288;DHT22;3260;52.438;13.502;2022-09-09T11:23:50;29.20;1.00
3288;DHT22;3260;52.438;13.502;2022-09-09T11:26:28;29.60;1.00
3288;DHT22;3260;52.438;13.502;2022-09-09T11:29:19;30.10;1.00
3288;DHT22;3260;52.438;13.502;2022-09-09T11:32:32;30.80;1.00
3288;DHT22;3260;52.438;13.502;2022-09-09T11:35:24;30.70;1.00
3288;DHT22;3260;52.438;13.502;2022-09-09T11:38:16;31.00;1.00
3288;DHT22;3260;52.438;13.502;2022-09-09T11:40:55;30.80;1.00
3288;DHT22;3260;52.438;13.502;2022-09-09T11:43:30;31.20;1.00
3288;DHT22;3260;52.438;13.502;2022-09-09T11:46:02;31.90;1.00
3288;DHT22;3260;52.438;13.502;2022-09-09T11:48:35;32.70;1.00
3288;DHT22;3260;52.438;13.502;2022-09-09T11:51:09;33.30;1.00
3288;DHT22;3260;52.438;13.502;2022-09-09T11:53:55;32.80;1.00
3288;DHT22;3260;52.438;13.502;2022-09-09T11:56:30;32.10;1.00
3288;DHT22;3260;52.438;13.502;2022-09-09T11:59:01;31.80;1.00
3288;DHT22;3260;52.438;13.502;2022-09-09T12:01:36;32.40;1.00
3288;DHT22;3260;52.438;13.502;2022-09-09T12:04:31;33.50;1.00
3288;DHT22;3260;52.438;13.502;2022-09-09T12:07:23;34.90;1.00
3288;DHT22;3260;52.438;13.502;2022-09-09T12:10:02;36.20;1.00
3288;DHT22;3260;52.438;13.502;2022-09-09T12:12:34;37.00;1.00
3288;DHT22;3260;52.438;13.502;2022-09-09T12:15:25;36.20;1.00
3288;DHT22;3260;52.438;13.502;2022-09-09T12:17:56;35.30;1.00
3288;DHT22;3260;52.438;13.502;2022-09-09T12:20:34;34.90;1.00
3288;DHT22;3260;52.438;13.502;2022-09-09T12:23:18;35.30;1.00
3288;DHT22;3260;52.438;13.502;2022-09-09T12:26:21;35.70;1.00
3288;DHT22;3260;52.438;13.502;2022-09-09T12:29:04;35.40;1.00
3288;DHT22;3260;52.438;13.502;2022-09-09T12:31:43;34.40;1.00
3288;DHT22;3260;52.438;13.502;2022-09-09T12:34:17;34.60;1.00
3288;DHT22;3260;52.438;13.502;2022-09-09T12:36:55;34.40;1.00
3288;DHT22;3260;52.438;13.502;2022-09-09T12:39:35;34.30;1.00
3288;DHT22;3260;52.438;13.502;2022-09-09T12:42:19;34.10;1.00
3288;DHT22;3260;52.438;13.502;2022-09-09T12:44:52;33.60;1.00
3288;DHT22;3260;52.438;13.502;2022-09-09T12:47:27;33.70;1.00
3288;DHT22;3260;52.438;13.502;2022-09-09T12:50:10;33.50;1.00
3288;DHT22;3260;52.438;13.502;2022-09-09T12:52:44;33.60;1.00
3288;DHT22;3260;52.438;13.502;2022-09-09T12:55:19;34.40;1.00
3288;DHT22;3260;52.438;13.502;2022-09-09T12:57:52;35.10;1.00
3288;DHT22;3260;52.438;13.502;2022-09-09T13:00:22;34.60;1.00
3288;DHT22;3260;52.438;13.502;2022-09-09T13:02:54;34.10;1.00
3288;DHT22;3260;52.438;13.502;2022-09-09T13:05:25;33.70;1.00
3288;DHT22;3260;52.438;13.502;2022-09-09T13:08:01;32.80;1.00
3288;DHT22;3260;52.438;13.502;2022-09-09T13:10:33;32.40;1.00
3288;DHT22;3260;52.438;13.502;2022-09-09T13:13:22;31.80;1.00
3288;DHT22;3260;52.438;13.502;2022-09-09T13:15:53;31.20;1.00
3288;DHT22;3260;52.438;13.502;2022-09-09T13:18:26;31.00;1.00
3288;DHT22;3260;52.438;13.502;2022-09-09T13:20:57;30.70;1.00
3288;DHT22;3260;52.438;13.502;2022-09-09T13:23:27;30.50;1.00
3288;DHT22;3260;52.438;13.502;2022-09-09T13:26:00;30.00;1.00
3288;DHT22;3260;52.438;13.502;2022-09-09T13:28:31;29.50;1.00
3288;DHT22;3260;52.438;13.502;2022-09-09T13:31:01;28.80;1.00
3288;DHT22;3260;52.438;13.502;2022-09-09T13:33:34;28.50;1.00
3288;DHT22;3260;52.438;13.502;2022-09-09T13:36:06;28.20;1.00
3288;DHT22;3260;52.438;13.502;2022-09-09T13:38:38;28.00;1.00
3288;DHT22;3260;52.438;13.502;2022-09-09T13:41:24;27.70;1.00
3288;DHT22;3260;52.438;13.502;2022-09-09T13:43:53;27.60;1.00
3288;DHT22;3260;52.438;13.502;2022-09-09T13:46:26;27.30;1.00
3288;DHT22;3260;52.438;13.502;2022-09-09T13:49:02;27.10;1.00
3288;DHT22;3260;52.438;13.502;2022-09-09T13:51:48;26.90;1.00
3288;DHT22;3260;52.438;13.502;2022-09-09T13:54:20;26.70;1.00
3288;DHT22;3260;52.438;13.502;2022-09-09T13:56:50;26.40;1.00
3288;DHT22;3260;52.438;13.502;2022-09-09T13:59:20;26.20;1.00
3288;DHT22;3260;52.438;13.502;2022-09-09T14:01:48;26.00;1.00
3288;DHT22;3260;52.438;13.502;2022-09-09T14:04:19;25.70;1.00
3288;DHT22;3260;52.438;13.502;2022-09-09T14:06:48;25.50;1.00
3288;DHT22;3260;52.438;13.502;2022-09-09T14:09:17;25.30;1.00
3288;DHT22;3260;52.438;13.502;2022-09-09T14:11:46;25.20;1.00
3288;DHT22;3260;52.438;13.502;2022-09-09T14:14:15;25.10;1.00
3288;DHT22;3260;52.438;13.502;2022-09-09T14:16:43;25.10;1.00
3288;DHT22;3260;52.438;13.502;2022-09-09T14:19:11;25.00;1.00
3288;DHT22;3260;52.438;13.502;2022-09-09T14:21:39;24.90;1.00
3288;DHT22;3260;52.438;13.502;2022-09-09T14:24:07;24.80;1.00
3288;DHT22;3260;52.438;13.502;2022-09-09T14:26:35;24.80;1.00
3288;DHT22;3260;52.438;13.502;2022-09-09T14:29:04;24.90;1.00
3288;DHT22;3260;52.438;13.502;2022-09-09T14:31:33;25.20;1.00
3288;DHT22;3260;52.438;13.502;2022-09-09T14:34:01;25.50;1.00
3288;DHT22;3260;52.438;13.502;2022-09-09T14:36:29;26.00;1.00
3288;DHT22;3260;52.438;13.502;2022-09-09T14:38:57;26.30;1.00
3288;DHT22;3260;52.438;13.502;2022-09-09T14:41:25;26.80;1.00
3288;DHT22;3260;52.438;13.502;2022-09-09T14:43:53;26.70;1.00
3288;DHT22;3260;52.438;13.502;2022-09-09T14:46:21;26.50;1.00
3288;DHT22;3260;52.438;13.502;2022-09-09T14:48:51;26.20;1.00
3288;DHT22;3260;52.438;13.502;2022-09-09T14:51:25;25.90;1.00
3288;DHT22;3260;52.438;13.502;2022-09-09T14:53:54;25.70;1.00
3288;DHT22;3260;52.438;13.502;2022-09-09T14:56:25;25.60;1.00
3288;DHT22;3260;52.438;13.502;2022-09-09T14:58:57;25.70;1.00
3288;DHT22;3260;52.438;13.502;2022-09-09T15:01:28;25.70;1.00
3288;DHT22;3260;52.438;13.502;2022-09-09T15:03:59;25.60;1.00
3288;DHT22;3260;52.438;13.502;2022-09-09T15:06:30;25.60;1.00
3288;DHT22;3260;52.438;13.502;2022-09-09T15:09:00;25.30;1.00
3288;DHT22;3260;52.438;13.502;2022-09-09T15:11:30;25.00;1.00
3288;DHT22;3260;52.438;13.502;2022-09-09T15:14:04;24.90;1.00
3288;DHT22;3260;52.438;13.502;2022-09-09T15:16:34;24.80;1.00
3288;DHT22;3260;52.438;13.502;2022-09-09T15:19:04;24.80;1.00
3288;DHT22;3260;52.438;13.502;2022-09-09T15:21:34;25.10;1.00
3288;DHT22;3260;52.438;13.502;2022-09-09T15:24:05;27.00;1.00
3288;DHT22;3260;52.438;13.502;2022-09-09T15:26:35;29.30;1.00
3288;DHT22;3260;52.438;13.502;2022-09-09T15:29:05;32.30;1.00
3288;DHT22;3260;52.438;13.502;2022-09-09T15:31:34;34.20;1.00
3288;DHT22;3260;52.438;13.502;2022-09-09T15:34:06;36.10;1.00
3288;DHT22;3260;52.438;13.502;2022-09-09T15:36:36;36.20;1.00
3288;DHT22;3260;52.438;13.502;2022-09-09T15:39:07;35.40;1.00
3288;DHT22;3260;52.438;13.502;2022-09-09T15:41:39;34.30;1.00
3288;DHT22;3260;52.438;13.502;2022-09-09T15:44:09;33.50;1.00
3288;DHT22;3260;52.438;13.502;2022-09-09T15:46:39;34.20;1.00
3288;DHT22;3260;52.438;13.502;2022-09-09T15:49:11;36.20;1.00
3288;DHT22;3260;52.438;13.502;2022-09-09T15:51:42;38.30;1.00
3288;DHT22;3260;52.438;13.502;2022-09-09T15:54:14;40.10;1.00
3288;DHT22;3260;52.438;13.502;2022-09-09T15:56:45;41.10;1.00
3288;DHT22;3260;52.438;13.502;2022-09-09T15:59:15;41.40;1.00
3288;DHT22;3260;52.438;13.502;2022-09-09T16:01:43;41.40;1.00
3288;DHT22;3260;52.438;13.502;2022-09-09T16:04:13;41.10;1.00
3288;DHT22;3260;52.438;13.502;2022-09-09T16:06:42;40.80;1.00
3288;DHT22;3260;52.438;13.502;2022-09-09T16:09:11;39.90;1.00
3288;DHT22;3260;52.438;13.502;2022-09-09T16:11:39;39.10;1.00
3288;DHT22;3260;52.438;13.502;2022-09-09T16:14:07;38.10;1.00
3288;DHT22;3260;52.438;13.502;2022-09-09T16:16:35;37.60;1.00
3288;DHT22;3260;52.438;13.502;2022-09-09T16:19:05;37.10;1.00
3288;DHT22;3260;52.438;13.502;2022-09-09T16:21:39;36.50;1.00
3288;DHT22;3260;52.438;13.502;2022-09-09T16:24:10;35.20;1.00
3288;DHT22;3260;52.438;13.502;2022-09-09T16:26:42;33.10;1.00
3288;DHT22;3260;52.438;13.502;2022-09-09T16:29:12;31.40;1.00
3288;DHT22;3260;52.438;13.502;2022-09-09T16:31:41;29.90;1.00
3288;DHT22;3260;52.438;13.502;2022-09-09T16:34:09;28.90;1.00
3288;DHT22;3260;52.438;13.502;2022-09-09T16:36:40;27.90;1.00
3288;DHT22;3260;52.438;13.502;2022-09-09T16:39:12;27.20;1.00
3288;DHT22;3260;52.438;13.502;2022-09-09T16:41:42;26.50;1.00
3288;DHT22;3260;52.438;13.502;2022-09-09T16:44:13;26.00;1.00
3288;DHT22;3260;52.438;13.502;2022-09-09T16:46:44;25.40;1.00
3288;DHT22;3260;52.438;13.502;2022-09-09T16:49:15;25.00;1.00
3288;DHT22;3260;52.438;13.502;2022-09-09T16:51:46;24.50;1.00
3288;DHT22;3260;52.438;13.502;2022-09-09T16:54:16;24.20;1.00
3288;DHT22;3260;52.438;13.502;2022-09-09T16:56:46;23.80;1.00
3288;DHT22;3260;52.438;13.502;2022-09-09T16:59:16;23.40;1.00
3288;DHT22;3260;52.438;13.502;2022-09-09T17:01:47;23.10;1.00
3288;DHT22;3260;52.438;13.502;2022-09-09T17:04:17;22.80;1.00
3288;DHT22;3260;52.438;13.502;2022-09-09T17:06:51;22.60;1.00
3288;DHT22;3260;52.438;13.502;2022-09-09T17:09:21;22.40;1.00
3288;DHT22;3260;52.438;13.502;2022-09-09T17:11:50;22.20;1.00
3288;DHT22;3260;52.438;13.502;2022-09-09T17:14:20;22.10;1.00
3288;DHT22;3260;52.438;13.502;2022-09-09T17:16:50;22.00;1.00
3288;DHT22;3260;52.438;13.502;2022-09-09T17:19:18;21.80;1.00
3288;DHT22;3260;52.438;13.502;2022-09-09T17:21:48;21.70;1.00
3288;DHT22;3260;52.438;13.502;2022-09-09T17:24:36;21.60;1.00
3288;DHT22;3260;52.438;13.502;2022-09-09T17:27:05;21.40;1.00
3288;DHT22;3260;52.438;13.502;2022-09-09T17:29:33;21.30;1.00
3288;DHT22;3260;52.438;13.502;2022-09-09T17:32:02;21.20;1.00
3288;DHT22;3260;52.438;13.502;2022-09-09T17:34:31;21.10;1.00
3288;DHT22;3260;52.438;13.502;2022-09-09T17:37:01;20.90;1.00
3288;DHT22;3260;52.438;13.502;2022-09-09T17:39:30;20.80;1.00
3288;DHT22;3260;52.438;13.502;2022-09-09T17:41:58;20.60;1.00
3288;DHT22;3260;52.438;13.502;2022-09-09T17:44:27;20.50;1.00
3288;DHT22;3260;52.438;13.502;2022-09-09T17:46:55;20.30;1.00
3288;DHT22;3260;52.438;13.502;2022-09-09T17:49:23;20.20;1.00
3288;DHT22;3260;52.438;13.502;2022-09-09T17:51:51;20.00;1.00
3288;DHT22;3260;52.438;13.502;2022-09-09T17:54:21;19.80;1.00
3288;DHT22;3260;52.438;13.502;2022-09-09T17:56:49;19.70;1.00
3288;DHT22;3260;52.438;13.502;2022-09-09T17:59:19;19.40;1.00
3288;DHT22;3260;52.438;13.502;2022-09-09T18:01:48;19.30;1.00
3288;DHT22;3260;52.438;13.502;2022-09-09T18:04:17;19.10;1.00
3288;DHT22;3260;52.438;13.502;2022-09-09T18:06:47;19.00;1.00
3288;DHT22;3260;52.438;13.502;2022-09-09T18:09:18;18.90;1.00
3288;DHT22;3260;52.438;13.502;2022-09-09T18:11:54;18.80;1.00
3288;DHT22;3260;52.438;13.502;2022-09-09T18:14:26;18.70;1.00
3288;DHT22;3260;52.438;13.502;2022-09-09T18:16:56;18.50;1.00
3288;DHT22;3260;52.438;13.502;2022-09-09T18:19:26;18.40;1.00
3288;DHT22;3260;52.438;13.502;2022-09-09T18:21:56;18.30;1.00
3288;DHT22;3260;52.438;13.502;2022-09-09T18:24:30;18.20;1.00
3288;DHT22;3260;52.438;13.502;2022-09-09T18:26:58;18.00;1.00
3288;DHT22;3260;52.438;13.502;2022-09-09T18:29:27;17.90;1.00
3288;DHT22;3260;52.438;13.502;2022-09-09T18:31:55;17.80;1.00
3288;DHT22;3260;52.438;13.502;2022-09-09T18:34:23;17.80;1.00
3288;DHT22;3260;52.438;13.502;2022-09-09T18:36:54;17.70;1.00
3288;DHT22;3260;52.438;13.502;2022-09-09T18:39:25;17.60;1.00
3288;DHT22;3260;52.438;13.502;2022-09-09T18:41:57;17.60;1.00
3288;DHT22;3260;52.438;13.502;2022-09-09T18:44:29;17.50;1.00
3288;DHT22;3260;52.438;13.502;2022-09-09T18:46:59;17.50;1.00
3288;DHT22;3260;52.438;13.502;2022-09-09T18:49:28;17.40;1.00
3288;DHT22;3260;52.438;13.502;2022-09-09T18:51:56;17.40;1.00
3288;DHT22;3260;52.438;13.502;2022-09-09T18:54:26;17.40;1.00
3288;DHT22;3260;52.438;13.502;2022-09-09T18:56:58;17.30;1.00
3288;DHT22;3260;52.438;13.502;2022-09-09T18:59:27;17.30;1.00
3288;DHT22;3260;52.438;13.502;2022-09-09T19:01:55;17.30;1.00
3288;DHT22;3260;52.438;13.502;2022-09-09T19:04:24;17.30;1.00
3288;DHT22;3260;52.438;13.502;2022-09-09T19:06:53;17.30;1.00
3288;DHT22;3260;52.438;13.502;2022-09-09T19:09:26;17.30;1.00
3288;DHT22;3260;52.438;13.502;2022-09-09T19:11:58;17.30;1.00
3288;DHT22;3260;52.438;13.502;2022-09-09T19:14:28;17.20;1.00
3288;DHT22;3260;52.438;13.502;2022-09-09T19:16:56;17.20;1.00
3288;DHT22;3260;52.438;13.502;2022-09-09T19:19:27;17.20;1.00
3288;DHT22;3260;52.438;13.502;2022-09-09T19:21:57;17.20;1.00
3288;DHT22;3260;52.438;13.502;2022-09-09T19:24:27;17.20;1.00
3288;DHT22;3260;52.438;13.502;2022-09-09T19:26:59;17.10;1.00
3288;DHT22;3260;52.438;13.502;2022-09-09T19:29:31;17.00;1.00
3288;DHT22;3260;52.438;13.502;2022-09-09T19:32:02;17.10;1.00
3288;DHT22;3260;52.438;13.502;2022-09-09T19:34:50;17.00;1.00
3288;DHT22;3260;52.438;13.502;2022-09-09T19:37:19;17.00;1.00
3288;DHT22;3260;52.438;13.502;2022-09-09T19:39:48;16.90;1.00
3288;DHT22;3260;52.438;13.502;2022-09-09T19:42:18;16.90;1.00
3288;DHT22;3260;52.438;13.502;2022-09-09T19:44:46;16.80;1.00
3288;DHT22;3260;52.438;13.502;2022-09-09T19:47:16;16.80;1.00
3288;DHT22;3260;52.438;13.502;2022-09-09T19:49:44;16.80;1.00
3288;DHT22;3260;52.438;13.502;2022-09-09T19:52:14;16.70;1.00
3288;DHT22;3260;52.438;13.502;2022-09-09T19:54:43;16.70;1.00
3288;DHT22;3260;52.438;13.502;2022-09-09T19:57:12;16.70;1.00
3288;DHT22;3260;52.438;13.502;2022-09-09T19:59:42;16.70;1.00
3288;DHT22;3260;52.438;13.502;2022-09-09T20:02:11;16.60;1.00
3288;DHT22;3260;52.438;13.502;2022-09-09T20:04:41;16.60;1.00
3288;DHT22;3260;52.438;13.502;2022-09-09T20:07:10;16.60;1.00
3288;DHT22;3260;52.438;13.502;2022-09-09T20:09:38;16.60;1.00
3288;DHT22;3260;52.438;13.502;2022-09-09T20:12:06;16.50;1.00
3288;DHT22;3260;52.438;13.502;2022-09-09T20:14:35;16.60;1.00
3288;DHT22;3260;52.438;13.502;2022-09-09T20:17:06;16.50;1.00
3288;DHT22;3260;52.438;13.502;2022-09-09T20:19:35;16.50;1.00
3288;DHT22;3260;52.438;13.502;2022-09-09T20:22:04;16.50;1.00
3288;DHT22;3260;52.438;13.502;2022-09-09T20:24:32;16.50;1.00
3288;DHT22;3260;52.438;13.502;2022-09-09T20:27:02;16.40;1.00
3288;DHT22;3260;52.438;13.502;2022-09-09T20:29:32;16.40;1.00
3288;DHT22;3260;52.438;13.502;2022-09-09T20:32:00;16.40;1.00
3288;DHT22;3260;52.438;13.502;2022-09-09T20:34:30;16.40;1.00
3288;DHT22;3260;52.438;13.502;2022-09-09T20:36:58;16.30;1.00